Time,TemperatureF,DewpointF,PressureIn,WindDirection,WindDirectionDegrees,WindSpeedMPH,WindSpeedGustMPH,Humidity,HourlyPrecipIn,Conditions,Clouds,dailyrainin,SoftwareType,DateUTC
2013-02-02 00:08:00,43.9,39.0,30.33,SSE,157,0.0,-999.0,83,-99.99,,,0.00,weatherlink.com 1.10,2013-02-02 06:08:00,
2013-02-02 00:23:00,43.6,39.0,30.33,SSE,157,0.0,-999.0,84,-99.99,,,0.00,weatherlink.com 1.10,2013-02-02 06:23:00,
2013-02-02 00:38:00,43.3,39.0,30.33,SSE,157,0.0,-999.0,86,-99.99,,,0.00,weatherlink.com 1.10,2013-02-02 06:38:00,
2013-02-02 00:53:00,43.0,39.0,30.34,SSE,157,0.0,-999.0,86,-99.99,,,0.00,weatherlink.com 1.10,2013-02-02 06:53:00,
2013-02-02 01:08:00,42.6,39.0,30.34,SSE,157,0.0,-999.0,88,-99.99,,,0.00,weatherlink.com 1.10,2013-02-02 07:08:00,
2013-02-02 01:23:00,42.4,39.0,30.34,SSE,157,0.0,-999.0,88,-99.99,,,0.00,weatherlink.com 1.10,2013-02-02 07:23:00,
2013-02-02 01:38:00,42.1,39.0,30.34,SSE,157,0.0,-999.0,89,-99.99,,,0.00,weatherlink.com 1.10,2013-02-02 07:38:00,
2013-02-02 01:53:00,41.8,39.0,30.34,SSE,157,0.0,-999.0,89,-99.99,,,0.00,weatherlink.com 1.10,2013-02-02 07:53:00,
2013-02-02 02:08:00,41.6,39.0,30.34,SSE,157,0.0,-999.0,90,-99.99,,,0.00,weatherlink.com 1.10,2013-02-02 08:08:00,
2013-02-02 02:23:00,41.2,39.0,30.33,SSE,157,0.0,-999.0,91,-99.99,,,0.00,weatherlink.com 1.10,2013-02-02 08:23:00,
2013-02-02 02:38:00,40.9,39.0,30.33,SSE,157,0.0,-999.0,91,-99.99,,,0.00,weatherlink.com 1.10,2013-02-02 08:38:00,
2013-02-02 02:53:00,40.5,38.0,30.33,SSE,157,0.0,-999.0,92,-99.99,,,0.00,weatherlink.com 1.10,2013-02-02 08:53:00,
2013-02-02 03:08:00,40.4,38.0,30.32,SSE,157,0.0,-999.0,92,-99.99,,,0.00,weatherlink.com 1.10,2013-02-02 09:08:00,
2013-02-02 03:23:00,40.2,38.0,30.32,SSE,157,0.0,-999.0,92,-99.99,,,0.00,weatherlink.com 1.10,2013-02-02 09:23:00,
2013-02-02 03:38:00,40.1,38.0,30.32,SSE,157,0.0,-999.0,93,-99.99,,,0.00,weatherlink.com 1.10,2013-02-02 09:38:00,
2013-02-02 03:53:00,40.3,39.0,30.32,SSE,157,1.0,-999.0,93,-99.99,,,0.00,weatherlink.com 1.10,2013-02-02 09:53:00,
2013-02-02 04:08:00,40.6,39.0,30.31,SSE,157,0.0,-999.0,93,-99.99,,,0.00,weatherlink.com 1.10,2013-02-02 10:08:00,
2013-02-02 04:23:00,40.5,39.0,30.31,SSE,157,0.0,-999.0,93,-99.99,,,0.00,weatherlink.com 1.10,2013-02-02 10:23:00,
2013-02-02 04:38:00,40.6,39.0,30.32,SSE,157,0.0,-999.0,94,-99.99,,,0.00,weatherlink.com 1.10,2013-02-02 10:38:00,
2013-02-02 04:53:00,40.5,39.0,30.31,SSE,157,0.0,-999.0,94,-99.99,,,0.00,weatherlink.com 1.10,2013-02-02 10:53:00,
2013-02-02 05:08:00,40.9,39.0,30.31,SSE,157,0.0,-999.0,94,-99.99,,,0.00,weatherlink.com 1.10,2013-02-02 11:08:00,
2013-02-02 05:23:00,41.1,40.0,30.31,East,92,0.0,-999.0,94,-99.99,,,0.00,weatherlink.com 1.10,2013-02-02 11:23:00,
2013-02-02 05:38:00,41.3,40.0,30.31,East,84,0.0,-999.0,94,-99.99,,,0.00,weatherlink.com 1.10,2013-02-02 11:38:00,
2013-02-02 05:53:00,41.5,40.0,30.31,North,5,2.0,-999.0,94,-99.99,,,0.00,weatherlink.com 1.10,2013-02-02 11:53:00,
2013-02-02 06:08:00,41.6,40.0,30.32,North,5,0.0,-999.0,94,-99.99,,,0.00,weatherlink.com 1.10,2013-02-02 12:08:00,
2013-02-02 06:23:00,41.5,40.0,30.32,ESE,107,2.0,-999.0,94,-99.99,,,0.00,weatherlink.com 1.10,2013-02-02 12:23:00,
2013-02-02 06:38:00,41.6,40.0,30.31,East,98,4.0,-999.0,94,-99.99,,,0.00,weatherlink.com 1.10,2013-02-02 12:38:00,
2013-02-02 06:53:00,41.8,40.0,30.31,East,89,1.0,-999.0,93,-99.99,,,0.00,weatherlink.com 1.10,2013-02-02 12:53:00,
2013-02-02 07:08:00,41.8,40.0,30.32,East,95,2.0,-999.0,92,-99.99,,,0.00,weatherlink.com 1.10,2013-02-02 13:08:00,
2013-02-02 07:23:00,41.9,40.0,30.32,East,97,4.0,-999.0,91,-99.99,,,0.00,weatherlink.com 1.10,2013-02-02 13:23:00,
2013-02-02 07:38:00,42.3,40.0,30.32,East,92,4.0,-999.0,90,-99.99,,,0.00,weatherlink.com 1.10,2013-02-02 13:38:00,
2013-02-02 07:53:00,43.1,40.0,30.32,East,91,4.0,-999.0,89,-99.99,,,0.00,weatherlink.com 1.10,2013-02-02 13:53:00,
2013-02-02 08:08:00,44.3,41.0,30.32,East,86,2.0,-999.0,87,-99.99,,,0.00,weatherlink.com 1.10,2013-02-02 14:08:00,
2013-02-02 08:23:00,46.0,42.0,30.32,ESE,123,6.0,-999.0,85,-99.99,,,0.00,weatherlink.com 1.10,2013-02-02 14:23:00,
2013-02-02 08:39:00,48.0,43.0,30.32,ESE,114,2.0,-999.0,83,-99.99,,,0.00,weatherlink.com 1.10,2013-02-02 14:39:00,
2013-02-02 08:54:00,49.5,44.0,30.32,East,88,4.0,-999.0,80,-99.99,,,0.00,weatherlink.com 1.10,2013-02-02 14:54:00,
2013-02-02 09:09:00,51.5,45.0,30.32,East,94,6.0,-999.0,78,-99.99,,,0.00,weatherlink.com 1.10,2013-02-02 15:09:00,
2013-02-02 09:24:00,53.2,45.0,30.32,SE,126,6.0,-999.0,75,-99.99,,,0.00,weatherlink.com 1.10,2013-02-02 15:24:00,
2013-02-02 09:39:00,54.7,46.0,30.32,SSE,153,4.0,-999.0,72,-99.99,,,0.00,weatherlink.com 1.10,2013-02-02 15:39:00,
2013-02-02 09:54:00,57.0,47.0,30.31,SSW,198,3.0,-999.0,70,-99.99,,,0.00,weatherlink.com 1.10,2013-02-02 15:54:00,
2013-02-02 10:09:00,58.6,48.0,30.31,SSE,148,4.0,-999.0,68,-99.99,,,0.00,weatherlink.com 1.10,2013-02-02 16:09:00,
2013-02-02 10:24:00,60.5,49.0,30.31,South,171,0.0,-999.0,66,-99.99,,,0.00,weatherlink.com 1.10,2013-02-02 16:24:00,
2013-02-02 10:39:00,62.1,49.0,30.30,SSW,194,4.0,-999.0,63,-99.99,,,0.00,weatherlink.com 1.10,2013-02-02 16:39:00,
2013-02-02 10:54:00,63.4,50.0,30.30,South,188,2.0,-999.0,61,-99.99,,,0.00,weatherlink.com 1.10,2013-02-02 16:54:00,
2013-02-02 11:09:00,65.3,50.0,30.29,SE,132,1.0,-999.0,59,-99.99,,,0.00,weatherlink.com 1.10,2013-02-02 17:09:00,
2013-02-02 11:24:00,65.3,50.0,30.29,South,189,1.0,-999.0,59,-99.99,,,0.00,weatherlink.com 1.10,2013-02-02 17:24:00,
2013-02-02 11:39:00,66.6,52.0,30.28,SSW,207,4.0,-999.0,60,-99.99,,,0.00,weatherlink.com 1.10,2013-02-02 17:39:00,
2013-02-02 11:54:00,67.1,52.0,30.27,South,172,4.0,-999.0,58,-99.99,,,0.00,weatherlink.com 1.10,2013-02-02 17:54:00,
2013-02-02 12:09:00,67.7,53.0,30.26,South,184,2.0,-999.0,59,-99.99,,,0.00,weatherlink.com 1.10,2013-02-02 18:09:00,
2013-02-02 12:24:00,68.0,52.0,30.26,NW,310,4.0,-999.0,58,-99.99,,,0.00,weatherlink.com 1.10,2013-02-02 18:24:00,
2013-02-02 12:39:00,68.2,53.0,30.25,South,171,0.0,-999.0,58,-99.99,,,0.00,weatherlink.com 1.10,2013-02-02 18:39:00,
2013-02-02 12:55:00,68.5,53.0,30.24,ESE,121,2.0,-999.0,58,-99.99,,,0.00,weatherlink.com 1.10,2013-02-02 18:55:00,
2013-02-02 13:10:00,69.3,52.0,30.23,South,190,4.0,-999.0,54,-99.99,,,0.00,weatherlink.com 1.10,2013-02-02 19:10:00,
2013-02-02 13:25:00,70.0,51.0,30.22,WSW,256,3.0,-999.0,52,-99.99,,,0.00,weatherlink.com 1.10,2013-02-02 19:25:00,
2013-02-02 13:40:00,70.4,52.0,30.21,South,186,4.0,-999.0,52,-99.99,,,0.00,weatherlink.com 1.10,2013-02-02 19:40:00,
2013-02-02 13:55:00,70.2,52.0,30.21,SW,219,5.0,-999.0,52,-99.99,,,0.00,weatherlink.com 1.10,2013-02-02 19:55:00,
2013-02-02 14:10:00,70.2,52.0,30.21,West,269,3.0,-999.0,52,-99.99,,,0.00,weatherlink.com 1.10,2013-02-02 20:10:00,
2013-02-02 14:25:00,71.1,51.0,30.20,WNW,291,9.0,-999.0,50,-99.99,,,0.00,weatherlink.com 1.10,2013-02-02 20:25:00,
2013-02-02 14:40:00,72.0,52.0,30.20,SSW,202,3.0,-999.0,50,-99.99,,,0.00,weatherlink.com 1.10,2013-02-02 20:40:00,
2013-02-02 14:55:00,72.1,52.0,30.20,NNW,337,4.0,-999.0,49,-99.99,,,0.00,weatherlink.com 1.10,2013-02-02 20:55:00,
2013-02-02 15:10:00,71.7,51.0,30.19,WSW,251,4.0,-999.0,48,-99.99,,,0.00,weatherlink.com 1.10,2013-02-02 21:10:00,
2013-02-02 15:25:00,71.3,50.0,30.19,SW,230,1.0,-999.0,47,-99.99,,,0.00,weatherlink.com 1.10,2013-02-02 21:25:00,
2013-02-02 15:40:00,71.3,50.0,30.18,SW,219,5.0,-999.0,47,-99.99,,,0.00,weatherlink.com 1.10,2013-02-02 21:40:00,
2013-02-02 15:55:00,71.4,51.0,30.18,SW,231,3.0,-999.0,48,-99.99,,,0.00,weatherlink.com 1.10,2013-02-02 21:55:00,
2013-02-02 16:10:00,70.9,51.0,30.18,South,187,0.0,-999.0,50,-99.99,,,0.00,weatherlink.com 1.10,2013-02-02 22:10:00,
2013-02-02 16:25:00,70.6,51.0,30.18,SW,219,0.0,-999.0,50,-99.99,,,0.00,weatherlink.com 1.10,2013-02-02 22:25:00,
2013-02-02 16:40:00,70.2,50.0,30.18,WSW,254,1.0,-999.0,49,-99.99,,,0.00,weatherlink.com 1.10,2013-02-02 22:40:00,
2013-02-02 16:55:00,69.9,50.0,30.18,SW,228,2.0,-999.0,50,-99.99,,,0.00,weatherlink.com 1.10,2013-02-02 22:55:00,
2013-02-02 17:10:00,69.4,50.0,30.18,West,281,2.0,-999.0,51,-99.99,,,0.00,weatherlink.com 1.10,2013-02-02 23:10:00,
2013-02-02 17:25:00,68.6,50.0,30.18,WNW,299,1.0,-999.0,52,-99.99,,,0.00,weatherlink.com 1.10,2013-02-02 23:25:00,
2013-02-02 17:40:00,67.9,50.0,30.18,WSW,239,0.0,-999.0,53,-99.99,,,0.00,weatherlink.com 1.10,2013-02-02 23:40:00,
2013-02-02 17:55:00,67.3,50.0,30.19,WSW,239,0.0,-999.0,54,-99.99,,,0.00,weatherlink.com 1.10,2013-02-02 23:55:00,
2013-02-02 18:10:00,66.3,50.0,30.19,WSW,239,0.0,-999.0,57,-99.99,,,0.00,weatherlink.com 1.10,2013-02-03 00:10:00,
2013-02-02 18:25:00,65.0,52.0,30.20,WSW,239,0.0,-999.0,62,-99.99,,,0.00,weatherlink.com 1.10,2013-02-03 00:25:00,
2013-02-02 18:40:00,63.3,50.0,30.20,WSW,239,0.0,-999.0,63,-99.99,,,0.00,weatherlink.com 1.10,2013-02-03 00:40:00,
2013-02-02 18:55:00,61.9,49.0,30.21,WSW,239,0.0,-999.0,64,-99.99,,,0.00,weatherlink.com 1.10,2013-02-03 00:55:00,
2013-02-02 19:10:00,60.9,50.0,30.21,WSW,239,0.0,-999.0,67,-99.99,,,0.00,weatherlink.com 1.10,2013-02-03 01:10:00,
2013-02-02 19:25:00,59.8,50.0,30.21,WSW,239,0.0,-999.0,70,-99.99,,,0.00,weatherlink.com 1.10,2013-02-03 01:25:00,
2013-02-02 19:40:00,58.7,49.0,30.21,WSW,239,0.0,-999.0,71,-99.99,,,0.00,weatherlink.com 1.10,2013-02-03 01:40:00,
2013-02-02 19:55:00,57.7,49.0,30.21,WSW,239,0.0,-999.0,72,-99.99,,,0.00,weatherlink.com 1.10,2013-02-03 01:55:00,
2013-02-02 20:10:00,57.0,50.0,30.21,WSW,239,0.0,-999.0,78,-99.99,,,0.00,weatherlink.com 1.10,2013-02-03 02:10:00,
2013-02-02 20:25:00,56.4,50.0,30.22,WSW,239,0.0,-999.0,79,-99.99,,,0.00,weatherlink.com 1.10,2013-02-03 02:25:00,
2013-02-02 20:40:00,55.7,50.0,30.22,WSW,239,0.0,-999.0,80,-99.99,,,0.00,weatherlink.com 1.10,2013-02-03 02:40:00,
2013-02-02 20:55:00,55.3,50.0,30.22,WSW,239,0.0,-999.0,82,-99.99,,,0.00,weatherlink.com 1.10,2013-02-03 02:55:00,
2013-02-02 21:10:00,54.9,50.0,30.22,WSW,239,0.0,-999.0,83,-99.99,,,0.00,weatherlink.com 1.10,2013-02-03 03:10:00,
2013-02-02 21:25:00,55.0,50.0,30.22,SSW,196,0.0,-999.0,84,-99.99,,,0.00,weatherlink.com 1.10,2013-02-03 03:25:00,
2013-02-02 21:40:00,55.6,51.0,30.22,SSW,196,0.0,-999.0,85,-99.99,,,0.00,weatherlink.com 1.10,2013-02-03 03:40:00,
2013-02-02 21:55:00,56.2,52.0,30.22,SSW,213,3.0,-999.0,85,-99.99,,,0.00,weatherlink.com 1.10,2013-02-03 03:55:00,
2013-02-02 22:10:00,56.6,52.0,30.22,SSW,213,0.0,-999.0,84,-99.99,,,0.00,weatherlink.com 1.10,2013-02-03 04:10:00,
2013-02-02 22:25:00,56.6,52.0,30.23,WSW,248,0.0,-999.0,84,-99.99,,,0.00,weatherlink.com 1.10,2013-02-03 04:25:00,
2013-02-02 22:40:00,56.5,52.0,30.23,WSW,248,0.0,-999.0,84,-99.99,,,0.00,weatherlink.com 1.10,2013-02-03 04:40:00,
2013-02-02 22:55:00,56.2,52.0,30.23,WSW,248,0.0,-999.0,84,-99.99,,,0.00,weatherlink.com 1.10,2013-02-03 04:55:00,
2013-02-02 23:10:00,55.7,51.0,30.23,WSW,248,0.0,-999.0,84,-99.99,,,0.00,weatherlink.com 1.10,2013-02-03 05:10:00,
2013-02-02 23:25:00,55.0,51.0,30.23,WSW,248,0.0,-999.0,86,-99.99,,,0.00,weatherlink.com 1.10,2013-02-03 05:25:00,
2013-02-02 23:40:00,54.4,51.0,30.24,WSW,248,0.0,-999.0,87,-99.99,,,0.00,weatherlink.com 1.10,2013-02-03 05:40:00,
2013-02-02 23:55:00,54.2,51.0,30.25,NNW,340,0.0,-999.0,89,-99.99,,,0.00,weatherlink.com 1.10,2013-02-03 05:55:00,